Time;durP1;ratioP1;P1;durP2;ratioP2;P2;SDS_P1;SDS_P2;PMS_P1;PMS_P2;Temp;Humidity;BMP_temperature;BMP_pressure;BME280_temperature;BME280_humidity;BME280_pressure;Samples;Min_cycle;Max_cycle;Signal;HPM_P1;HPM_P2
2020/12/01 00:00:15;;;;;;;34.63;20.23;;;;;;;;;;5063693;28;20035;-89
2020/12/01 00:02:40;;;;;;;36.72;22.95;;;;;;;;;;5046160;28;20184;-87
2020/12/01 00:05:05;;;;;;;39.60;22.73;;;;;;;;;;5065542;28;20157;-88
2020/12/01 00:07:30;;;;;;;44.23;24.13;;;;;;;;;;5085583;28;20260;-89
2020/12/01 00:09:55;;;;;;;37.63;21.97;;;;;;;;;;5078446;28;20784;-89
2020/12/01 00:12:21;;;;;;;35.83;22.07;;;;;;;;;;5071199;28;20027;-87
2020/12/01 00:14:46;;;;;;;34.17;21.65;;;;;;;;;;5069834;28;21094;-89
2020/12/01 00:17:11;;;;;;;36.63;22.48;;;;;;;;;;5061957;28;20021;-89
2020/12/01 00:19:37;;;;;;;39.00;23.13;;;;;;;;;;5064948;28;20097;-88
2020/12/01 00:22:02;;;;;;;45.70;24.63;;;;;;;;;;5048213;28;20282;-88
2020/12/01 00:24:27;;;;;;;42.10;24.15;;;;;;;;;;5068410;28;20020;-88
2020/12/01 00:26:53;;;;;;;39.35;25.15;;;;;;;;;;5057021;28;20387;-87
2020/12/01 00:29:18;;;;;;;36.88;22.42;;;;;;;;;;5058458;28;20031;-89
2020/12/01 00:31:43;;;;;;;47.97;26.37;;;;;;;;;;5063825;28;20023;-88
2020/12/01 00:34:09;;;;;;;42.28;24.80;;;;;;;;;;5069692;28;20291;-86
2020/12/01 00:36:34;;;;;;;50.25;26.45;;;;;;;;;;5061179;28;20059;-88
2020/12/01 00:39:00;;;;;;;43.28;25.10;;;;;;;;;;5064759;28;20048;-88
2020/12/01 00:41:25;;;;;;;47.85;26.00;;;;;;;;;;5068618;28;20425;-89
2020/12/01 00:43:50;;;;;;;41.07;23.33;;;;;;;;;;5082264;28;20034;-90
2020/12/01 00:46:15;;;;;;;41.67;25.35;;;;;;;;;;5063607;28;20021;-90
2020/12/01 00:48:41;;;;;;;35.70;22.55;;;;;;;;;;5060464;28;20016;-88
2020/12/01 00:51:06;;;;;;;42.70;25.67;;;;;;;;;;5066238;28;20032;-90
2020/12/01 00:53:31;;;;;;;34.97;22.45;;;;;;;;;;5064430;28;20013;-88
2020/12/01 00:55:56;;;;;;;35.17;21.50;;;;;;;;;;5055647;28;20021;-88
2020/12/01 00:58:21;;;;;;;33.77;21.60;;;;;;;;;;5067128;28;20017;-88
2020/12/01 01:00:48;;;;;;;35.15;21.48;;;;;;;;;;5065866;28;20367;-88
2020/12/01 01:03:14;;;;;;;38.20;23.52;;;;;;;;;;5058374;28;20021;-87
2020/12/01 01:05:39;;;;;;;35.07;21.27;;;;;;;;;;5060901;28;20030;-89
2020/12/01 01:08:04;;;;;;;33.22;21.13;;;;;;;;;;5063661;28;20520;-89
2020/12/01 01:10:31;;;;;;;36.27;21.97;;;;;;;;;;5047906;28;20109;-88
2020/12/01 01:12:56;;;;;;;36.58;22.55;;;;;;;;;;5061372;28;20285;-88
2020/12/01 01:15:26;;;;;;;33.05;21.55;;;;;;;;;;5065099;28;20021;-89
2020/12/01 01:17:51;;;;;;;35.25;21.45;;;;;;;;;;5063071;28;20028;-89
2020/12/01 01:20:16;;;;;;;34.72;20.88;;;;;;;;;;5062420;28;20016;-88
2020/12/01 01:22:42;;;;;;;37.75;23.00;;;;;;;;;;5063515;28;20108;-89
2020/12/01 01:25:07;;;;;;;32.97;20.13;;;;;;;;;;5065148;28;20073;-86
2020/12/01 01:27:32;;;;;;;39.85;22.70;;;;;;;;;;5061702;28;20337;-86
2020/12/01 01:29:57;;;;;;;32.93;20.87;;;;;;;;;;5062641;28;20016;-89
2020/12/01 01:32:22;;;;;;;34.03;20.77;;;;;;;;;;5054519;28;20021;-88
2020/12/01 01:34:48;;;;;;;41.53;23.77;;;;;;;;;;5043037;28;20328;-88
2020/12/01 01:37:13;;;;;;;34.20;22.23;;;;;;;;;;5066968;28;20108;-88
2020/12/01 01:39:38;;;;;;;33.70;20.67;;;;;;;;;;5066680;28;20024;-89
2020/12/01 01:42:04;;;;;;;35.65;22.00;;;;;;;;;;5067608;28;20294;-90
2020/12/01 01:44:30;;;;;;;36.58;22.02;;;;;;;;;;5046366;28;20178;-88
2020/12/01 01:46:58;;;;;;;35.83;22.92;;;;;;;;;;5065776;28;20111;-88
2020/12/01 01:49:35;;;;;;;39.58;23.35;;;;;;;;;;5059690;28;20453;-89
2020/12/01 01:52:00;;;;;;;33.17;21.17;;;;;;;;;;5063493;28;20021;-88
2020/12/01 01:54:26;;;;;;;37.55;22.13;;;;;;;;;;5059268;28;20052;-88
2020/12/01 01:56:56;;;;;;;38.60;23.23;;;;;;;;;;5060026;28;20043;-88
2020/12/01 01:59:22;;;;;;;40.38;24.15;;;;;;;;;;5064763;28;20475;-88
2020/12/01 02:01:48;;;;;;;35.15;22.20;;;;;;;;;;5062191;28;20114;-88
2020/12/01 02:04:14;;;;;;;36.78;22.30;;;;;;;;;;5060759;28;20021;-88
2020/12/01 02:06:42;;;;;;;36.95;22.92;;;;;;;;;;5047936;28;20103;-87
2020/12/01 02:09:07;;;;;;;36.80;22.83;;;;;;;;;;5060596;28;20090;-87
2020/12/01 02:11:33;;;;;;;41.42;24.70;;;;;;;;;;5061497;28;20024;-87
2020/12/01 02:14:27;;;;;;;43.75;26.42;;;;;;;;;;5067988;28;20043;-88
2020/12/01 02:16:54;;;;;;;35.63;21.27;;;;;;;;;;5068638;28;20100;-87
2020/12/01 02:19:22;;;;;;;42.90;24.95;;;;;;;;;;5073140;28;20695;-87
2020/12/01 02:21:48;;;;;;;39.50;24.23;;;;;;;;;;5063819;28;20017;-88
2020/12/01 02:24:15;;;;;;;43.97;24.70;;;;;;;;;;5064857;28;20059;-88
2020/12/01 02:26:41;;;;;;;43.33;24.35;;;;;;;;;;5062702;28;20509;-87
2020/12/01 02:29:09;;;;;;;47.45;26.65;;;;;;;;;;5067404;28;20124;-87
2020/12/01 02:31:34;;;;;;;44.70;26.70;;;;;;;;;;5065556;28;20162;-87
2020/12/01 02:34:03;;;;;;;40.77;23.93;;;;;;;;;;5064484;28;20472;-89
2020/12/01 02:36:28;;;;;;;39.83;23.02;;;;;;;;;;5064745;28;20353;-87
2020/12/01 02:38:56;;;;;;;39.47;24.23;;;;;;;;;;5067218;28;20125;-87
2020/12/01 02:41:21;;;;;;;40.10;23.42;;;;;;;;;;5064916;28;20291;-88
2020/12/01 02:43:46;;;;;;;41.90;24.23;;;;;;;;;;5050760;28;20467;-87
2020/12/01 02:46:11;;;;;;;51.57;27.00;;;;;;;;;;5056830;28;20378;-88
2020/12/01 02:48:37;;;;;;;47.00;24.80;;;;;;;;;;5066030;28;20805;-86
2020/12/01 02:51:02;;;;;;;45.73;25.30;;;;;;;;;;5059363;28;20020;-88
2020/12/01 02:53:27;;;;;;;44.47;25.00;;;;;;;;;;5064197;28;20728;-87
2020/12/01 02:55:52;;;;;;;44.13;24.90;;;;;;;;;;5062294;28;20020;-86
2020/12/01 02:58:18;;;;;;;36.78;22.92;;;;;;;;;;5065581;28;20069;-88
2020/12/01 03:00:43;;;;;;;41.40;24.47;;;;;;;;;;5067904;28;20037;-86
2020/12/01 03:03:09;;;;;;;41.33;23.98;;;;;;;;;;5065933;28;20295;-89
2020/12/01 03:05:34;;;;;;;48.80;25.63;;;;;;;;;;5061673;28;20108;-89
2020/12/01 03:07:59;;;;;;;42.75;24.48;;;;;;;;;;5067243;28;20020;-89
2020/12/01 03:10:24;;;;;;;39.47;23.40;;;;;;;;;;5063941;28;20027;-86
2020/12/01 03:12:49;;;;;;;45.63;24.60;;;;;;;;;;5063989;28;20390;-86
2020/12/01 03:15:16;;;;;;;42.10;24.07;;;;;;;;;;5059289;28;20052;-86
2020/12/01 03:17:41;;;;;;;47.97;25.38;;;;;;;;;;5060852;28;20027;-87
2020/12/01 03:20:07;;;;;;;47.63;25.25;;;;;;;;;;5069853;28;20371;-86
2020/12/01 03:22:32;;;;;;;45.13;24.38;;;;;;;;;;5061084;28;20044;-85
2020/12/01 03:24:57;;;;;;;40.73;23.50;;;;;;;;;;5056834;28;20020;-87
2020/12/01 03:27:22;;;;;;;40.27;22.70;;;;;;;;;;5059693;28;20271;-86
2020/12/01 03:29:48;;;;;;;41.15;22.48;;;;;;;;;;5062906;28;20029;-90
2020/12/01 03:32:13;;;;;;;39.72;23.90;;;;;;;;;;5064969;28;20039;-89
2020/12/01 03:34:39;;;;;;;41.13;23.02;;;;;;;;;;5072669;28;20020;-90
2020/12/01 03:37:04;;;;;;;34.83;19.98;;;;;;;;;;5063251;28;20028;-90
2020/12/01 03:39:29;;;;;;;38.90;21.77;;;;;;;;;;5063264;28;20078;-89
2020/12/01 03:41:54;;;;;;;46.37;23.30;;;;;;;;;;5073690;28;20015;-90
2020/12/01 03:44:19;;;;;;;45.27;23.70;;;;;;;;;;5061047;28;20298;-90
2020/12/01 03:46:45;;;;;;;36.77;20.23;;;;;;;;;;5063466;28;20028;-87
2020/12/01 03:49:10;;;;;;;41.80;22.42;;;;;;;;;;5059932;28;20342;-87
2020/12/01 03:51:35;;;;;;;36.50;21.87;;;;;;;;;;5064225;28;20037;-89
2020/12/01 03:54:00;;;;;;;42.25;22.38;;;;;;;;;;5062405;28;20348;-89
2020/12/01 03:56:26;;;;;;;45.28;21.45;;;;;;;;;;5067301;28;20029;-86
2020/12/01 03:58:51;;;;;;;42.53;22.75;;;;;;;;;;5037191;28;20072;-89
2020/12/01 04:01:16;;;;;;;49.13;22.73;;;;;;;;;;5065627;28;20023;-88
2020/12/01 04:03:41;;;;;;;40.33;20.70;;;;;;;;;;5065900;28;20078;-88
2020/12/01 04:06:06;;;;;;;36.73;21.10;;;;;;;;;;5063291;28;20680;-88
2020/12/01 04:08:31;;;;;;;39.33;21.70;;;;;;;;;;5057543;28;20024;-89
2020/12/01 04:10:58;;;;;;;33.47;19.23;;;;;;;;;;5061963;28;20274;-88
2020/12/01 04:13:23;;;;;;;44.38;23.48;;;;;;;;;;5071575;28;20008;-88
2020/12/01 04:15:48;;;;;;;40.03;22.10;;;;;;;;;;5060642;28;20028;-88
2020/12/01 04:18:13;;;;;;;35.53;19.38;;;;;;;;;;5067584;28;20518;-88
2020/12/01 04:20:40;;;;;;;32.17;18.53;;;;;;;;;;5055711;28;20074;-88
2020/12/01 04:23:06;;;;;;;34.90;19.83;;;;;;;;;;5064401;28;20032;-89
2020/12/01 04:25:32;;;;;;;37.53;20.85;;;;;;;;;;5067499;28;20032;-87
2020/12/01 04:27:57;;;;;;;39.42;20.65;;;;;;;;;;5065643;28;20077;-88
2020/12/01 04:30:23;;;;;;;37.20;20.80;;;;;;;;;;5062604;28;20025;-88
2020/12/01 04:32:49;;;;;;;81.88;20.95;;;;;;;;;;5069425;28;20021;-88
2020/12/01 04:35:15;;;;;;;42.35;22.92;;;;;;;;;;5066612;28;20051;-89
2020/12/01 04:37:40;;;;;;;41.10;21.75;;;;;;;;;;5044098;28;20107;-90
2020/12/01 04:40:09;;;;;;;40.42;21.55;;;;;;;;;;5059156;28;20020;-88
2020/12/01 04:42:41;;;;;;;33.00;19.58;;;;;;;;;;5067833;28;20020;-87
2020/12/01 04:45:12;;;;;;;34.40;20.20;;;;;;;;;;5055926;28;20028;-88
2020/12/01 04:47:55;;;;;;;44.33;21.40;;;;;;;;;;5045011;28;20067;-86
2020/12/01 04:50:25;;;;;;;36.08;19.92;;;;;;;;;;5054213;28;20043;-87
2020/12/01 04:52:53;;;;;;;39.97;21.92;;;;;;;;;;5066750;28;20032;-87
2020/12/01 04:55:34;;;;;;;43.10;21.23;;;;;;;;;;5059952;28;20083;-88
2020/12/01 04:58:13;;;;;;;38.25;20.63;;;;;;;;;;5063527;28;20016;-87
2020/12/01 05:00:41;;;;;;;36.50;20.97;;;;;;;;;;5059083;28;20012;-89
2020/12/01 05:03:09;;;;;;;38.28;21.02;;;;;;;;;;5063120;28;20274;-88
2020/12/01 05:08:23;;;;;;;41.85;22.70;;;;;;;;;;5061386;28;20054;-86
2020/12/01 05:10:49;;;;;;;33.10;19.95;;;;;;;;;;5061440;28;20029;-86
2020/12/01 05:13:32;;;;;;;37.78;20.38;;;;;;;;;;5058838;28;20029;-85
2020/12/01 05:16:00;;;;;;;38.47;20.92;;;;;;;;;;5059564;28;20024;-85
2020/12/01 05:18:28;;;;;;;50.35;23.42;;;;;;;;;;5056127;28;20074;-86
2020/12/01 05:20:58;;;;;;;45.88;22.13;;;;;;;;;;5061245;28;20021;-86
2020/12/01 05:23:26;;;;;;;42.95;21.60;;;;;;;;;;5054481;28;20407;-86
2020/12/01 05:25:58;;;;;;;40.28;21.80;;;;;;;;;;5065396;28;20056;-86
2020/12/01 05:28:23;;;;;;;34.92;19.17;;;;;;;;;;5056606;28;20418;-87
2020/12/01 05:30:57;;;;;;;47.47;22.80;;;;;;;;;;5063473;28;20028;-86
2020/12/01 05:33:24;;;;;;;43.55;21.65;;;;;;;;;;5059407;28;20287;-87
2020/12/01 05:36:08;;;;;;;36.83;20.95;;;;;;;;;;5043808;28;20028;-87
2020/12/01 05:38:33;;;;;;;39.05;20.35;;;;;;;;;;5055105;28;20016;-87
2020/12/01 05:41:16;;;;;;;34.60;19.08;;;;;;;;;;5058521;28;20482;-86
2020/12/01 05:43:43;;;;;;;37.85;20.13;;;;;;;;;;5058219;28;20052;-86
2020/12/01 05:46:14;;;;;;;35.55;20.35;;;;;;;;;;5054072;28;20078;-86
2020/12/01 05:48:44;;;;;;;34.55;18.67;;;;;;;;;;5059404;28;20032;-86
2020/12/01 05:51:13;;;;;;;33.95;18.52;;;;;;;;;;5053960;28;20289;-86
2020/12/01 05:53:39;;;;;;;35.72;20.08;;;;;;;;;;5061083;28;20463;-88
2020/12/01 05:56:14;;;;;;;45.85;22.63;;;;;;;;;;5062374;28;20104;-86
2020/12/01 05:58:42;;;;;;;32.05;18.83;;;;;;;;;;5060566;28;20048;-87
2020/12/01 06:01:08;;;;;;;39.28;21.15;;;;;;;;;;5062951;28;20027;-86
2020/12/01 06:03:56;;;;;;;47.63;20.63;;;;;;;;;;5063908;28;20028;-88
2020/12/01 06:06:24;;;;;;;37.03;18.55;;;;;;;;;;5062846;28;20008;-88
2020/12/01 06:08:49;;;;;;;33.42;17.63;;;;;;;;;;5062524;28;20021;-87
2020/12/01 06:11:15;;;;;;;35.08;19.95;;;;;;;;;;5066047;28;20504;-87
2020/12/01 06:13:42;;;;;;;30.60;17.23;;;;;;;;;;5059805;28;20031;-88
2020/12/01 06:16:07;;;;;;;29.20;16.10;;;;;;;;;;5070334;28;20025;-88
2020/12/01 06:19:01;;;;;;;33.28;18.60;;;;;;;;;;5078588;28;20163;-88
2020/12/01 06:21:36;;;;;;;34.50;19.23;;;;;;;;;;5065167;28;20115;-89
2020/12/01 06:24:19;;;;;;;47.33;23.75;;;;;;;;;;5073547;28;20052;-87
2020/12/01 06:26:44;;;;;;;34.25;18.27;;;;;;;;;;5065855;28;20023;-86
2020/12/01 06:29:28;;;;;;;47.03;20.90;;;;;;;;;;5056455;28;20029;-86
2020/12/01 06:32:06;;;;;;;55.90;23.17;;;;;;;;;;5069360;28;20522;-84
2020/12/01 06:34:57;;;;;;;32.08;17.25;;;;;;;;;;5057696;28;20047;-86
2020/12/01 06:37:22;;;;;;;41.45;19.70;;;;;;;;;;5047817;28;20035;-87
2020/12/01 06:39:47;;;;;;;38.03;18.75;;;;;;;;;;5076157;28;20116;-89
2020/12/01 06:42:15;;;;;;;44.70;20.13;;;;;;;;;;5083432;28;20034;-91
2020/12/01 06:44:42;;;;;;;38.67;20.30;;;;;;;;;;5085411;28;20569;-89
2020/12/01 06:47:08;;;;;;;38.88;20.05;;;;;;;;;;5063273;28;20066;-85
2020/12/01 06:49:34;;;;;;;38.90;20.98;;;;;;;;;;5058138;28;20025;-87
2020/12/01 06:52:02;;;;;;;43.00;20.48;;;;;;;;;;5061383;28;20476;-88
2020/12/01 06:54:27;;;;;;;39.28;19.23;;;;;;;;;;5070187;28;21140;-89
2020/12/01 06:56:58;;;;;;;34.55;17.98;;;;;;;;;;5049289;28;20029;-91
2020/12/01 06:59:23;;;;;;;48.70;20.10;;;;;;;;;;5059259;28;20017;-90
2020/12/01 07:01:48;;;;;;;42.80;21.35;;;;;;;;;;5056891;28;20020;-90
2020/12/01 07:04:13;;;;;;;38.85;19.83;;;;;;;;;;5069766;28;20021;-89
2020/12/01 07:06:43;;;;;;;35.77;18.67;;;;;;;;;;5066936;28;20025;-82
2020/12/01 07:09:29;;;;;;;35.78;18.83;;;;;;;;;;5060167;28;20036;-84
2020/12/01 07:12:24;;;;;;;29.65;17.20;;;;;;;;;;5063679;28;20025;-85
2020/12/01 07:14:58;;;;;;;32.08;18.60;;;;;;;;;;5071239;28;20043;-83
2020/12/01 07:17:30;;;;;;;36.65;20.15;;;;;;;;;;5045588;28;20383;-85
2020/12/01 07:20:13;;;;;;;33.88;18.42;;;;;;;;;;5065482;28;20599;-83
2020/12/01 07:22:39;;;;;;;32.75;18.20;;;;;;;;;;5040557;28;20032;-85
2020/12/01 07:25:17;;;;;;;26.77;16.30;;;;;;;;;;5061212;28;20025;-84
2020/12/01 07:27:45;;;;;;;33.97;18.80;;;;;;;;;;5064070;28;20631;-82
2020/12/01 07:30:17;;;;;;;38.88;19.23;;;;;;;;;;5042154;28;20043;-82
2020/12/01 07:32:48;;;;;;;41.08;20.92;;;;;;;;;;5059516;28;20368;-82
2020/12/01 07:35:32;;;;;;;74.65;44.58;;;;;;;;;;5061977;28;20478;-83
2020/12/01 07:38:20;;;;;;;37.63;20.98;;;;;;;;;;5057754;28;20082;-82
2020/12/01 07:40:48;;;;;;;42.20;21.33;;;;;;;;;;5054084;28;20033;-82
2020/12/01 07:43:15;;;;;;;36.22;18.50;;;;;;;;;;5058764;28;20101;-82
2020/12/01 07:45:40;;;;;;;47.38;22.50;;;;;;;;;;5057966;28;20311;-82
2020/12/01 07:48:05;;;;;;;31.25;17.50;;;;;;;;;;5042284;28;21450;-84
2020/12/01 07:50:32;;;;;;;42.03;20.80;;;;;;;;;;5061107;28;20020;-84
2020/12/01 07:52:59;;;;;;;35.10;17.33;;;;;;;;;;5058944;28;20274;-84
2020/12/01 07:55:33;;;;;;;42.45;21.27;;;;;;;;;;5059732;28;20033;-84
2020/12/01 07:57:59;;;;;;;39.42;20.25;;;;;;;;;;5052170;28;20021;-83
2020/12/01 08:00:25;;;;;;;27.42;15.00;;;;;;;;;;5057274;28;20043;-84
2020/12/01 08:02:58;;;;;;;22.85;14.73;;;;;;;;;;5061875;28;20055;-83
2020/12/01 08:05:23;;;;;;;36.38;18.52;;;;;;;;;;5059185;28;20041;-83
2020/12/01 08:07:55;;;;;;;30.55;16.92;;;;;;;;;;5055654;28;20052;-83
2020/12/01 08:10:28;;;;;;;32.25;18.02;;;;;;;;;;5043498;28;20041;-83
2020/12/01 08:12:54;;;;;;;43.22;18.90;;;;;;;;;;5062327;28;20445;-82
2020/12/01 08:15:21;;;;;;;37.25;19.63;;;;;;;;;;5063867;28;20135;-83
2020/12/01 08:17:46;;;;;;;51.90;26.55;;;;;;;;;;5058419;28;20016;-81
2020/12/01 08:20:14;;;;;;;65.85;37.00;;;;;;;;;;5061237;28;20017;-86
2020/12/01 08:22:41;;;;;;;46.45;25.25;;;;;;;;;;5055768;28;20103;-86
2020/12/01 08:25:12;;;;;;;41.05;20.35;;;;;;;;;;5063967;28;20024;-84
2020/12/01 08:27:40;;;;;;;31.88;17.02;;;;;;;;;;5057339;28;20448;-86
2020/12/01 08:30:13;;;;;;;31.30;18.80;;;;;;;;;;5057830;28;20033;-82
2020/12/01 08:32:43;;;;;;;25.30;14.88;;;;;;;;;;5058057;28;20037;-82
2020/12/01 08:35:09;;;;;;;;;;;;;;;;;;5058744;28;20107;-84
2020/12/01 08:37:43;;;;;;;30.33;16.10;;;;;;;;;;5044963;28;20007;-83
2020/12/01 08:40:16;;;;;;;30.30;16.38;;;;;;;;;;5060453;28;20573;-83
2020/12/01 08:42:48;;;;;;;32.58;15.90;;;;;;;;;;5056360;28;20095;-83
2020/12/01 08:45:13;;;;;;;32.08;16.63;;;;;;;;;;5059707;28;20102;-83
2020/12/01 08:47:40;;;;;;;29.50;16.42;;;;;;;;;;5041771;28;20024;-83
2020/12/01 08:50:15;;;;;;;25.77;15.68;;;;;;;;;;5060543;28;20028;-82
2020/12/01 08:52:42;;;;;;;29.77;16.85;;;;;;;;;;5044051;28;20037;-83
2020/12/01 08:55:19;;;;;;;36.65;17.58;;;;;;;;;;5062401;28;20046;-84
2020/12/01 08:57:47;;;;;;;30.65;16.60;;;;;;;;;;5061687;28;20100;-84
2020/12/01 09:00:16;;;;;;;32.83;16.55;;;;;;;;;;5059498;28;20066;-89
2020/12/01 09:02:43;;;;;;;39.20;17.02;;;;;;;;;;5055813;28;20020;-83
2020/12/01 09:05:19;;;;;;;29.75;14.15;;;;;;;;;;5053084;28;20028;-85
2020/12/01 09:07:45;;;;;;;22.08;12.52;;;;;;;;;;5058991;28;20073;-89
2020/12/01 09:10:20;;;;;;;25.70;13.40;;;;;;;;;;5056520;28;20469;-90
2020/12/01 09:12:57;;;;;;;24.50;13.35;;;;;;;;;;5057321;28;20017;-86
2020/12/01 09:15:33;;;;;;;21.98;12.20;;;;;;;;;;5059933;28;20021;-82
2020/12/01 09:23:43;;;;;;;26.00;12.27;;;;;;;;;;4974729;28;20108;-83
2020/12/01 09:26:17;;;;;;;23.60;9.88;;;;;;;;;;5036286;28;20542;-86
2020/12/01 09:28:46;;;;;;;16.48;8.80;;;;;;;;;;5057130;28;20020;-85
2020/12/01 09:31:12;;;;;;;17.80;11.05;;;;;;;;;;5056405;28;20547;-87
2020/12/01 09:33:37;;;;;;;24.17;13.90;;;;;;;;;;5063745;28;20021;-88
2020/12/01 09:36:03;;;;;;;19.50;12.00;;;;;;;;;;5061991;28;20113;-89
2020/12/01 09:38:28;;;;;;;27.23;12.98;;;;;;;;;;5059117;28;20025;-84
2020/12/01 09:40:54;;;;;;;27.13;14.75;;;;;;;;;;5058826;28;20044;-82
2020/12/01 09:43:42;;;;;;;25.15;13.85;;;;;;;;;;5056771;28;20024;-85
2020/12/01 09:46:10;;;;;;;101.35;63.05;;;;;;;;;;5058458;28;20017;-88
2020/12/01 09:48:38;;;;;;;37.65;21.30;;;;;;;;;;5057839;28;20013;-86
2020/12/01 09:51:03;;;;;;;25.13;14.43;;;;;;;;;;5063965;28;20066;-87
2020/12/01 09:53:53;;;;;;;32.17;16.13;;;;;;;;;;5068207;28;20017;-88
2020/12/01 10:36:34;;;;;;;19.77;11.57;;;;;;;;;;5075049;28;20024;-84
2020/12/01 10:39:01;;;;;;;25.10;13.27;;;;;;;;;;5058016;28;20025;-84
2020/12/01 10:41:27;;;;;;;21.08;12.38;;;;;;;;;;5067405;28;20318;-89
2020/12/01 10:43:53;;;;;;;22.48;11.30;;;;;;;;;;5064793;28;20051;-90
2020/12/01 10:46:18;;;;;;;20.08;12.38;;;;;;;;;;5064842;28;20014;-84
2020/12/01 10:48:44;;;;;;;25.70;12.50;;;;;;;;;;5067256;28;20032;-85
2020/12/01 10:51:09;;;;;;;23.88;12.30;;;;;;;;;;5060032;28;20025;-87
2020/12/01 10:53:36;;;;;;;17.97;10.13;;;;;;;;;;5066679;28;20103;-85
2020/12/01 10:56:01;;;;;;;18.80;11.75;;;;;;;;;;5060894;28;20297;-86
2020/12/01 10:58:26;;;;;;;21.10;10.98;;;;;;;;;;5064803;28;20028;-84
2020/12/01 11:00:52;;;;;;;22.10;11.80;;;;;;;;;;5060404;28;20725;-85
2020/12/01 11:03:17;;;;;;;24.33;12.77;;;;;;;;;;5043560;28;20718;-85
2020/12/01 11:05:42;;;;;;;29.35;16.75;;;;;;;;;;5066882;28;20040;-85
2020/12/01 11:08:08;;;;;;;31.48;17.33;;;;;;;;;;5066819;28;20032;-84
2020/12/01 11:10:33;;;;;;;23.15;13.93;;;;;;;;;;5062170;28;20069;-85
2020/12/01 11:12:59;;;;;;;22.33;11.82;;;;;;;;;;5070555;28;20055;-90
2020/12/01 11:15:24;;;;;;;20.52;11.70;;;;;;;;;;5069583;28;20062;-88
2020/12/01 11:17:49;;;;;;;18.10;10.93;;;;;;;;;;5055723;28;20021;-89
2020/12/01 11:20:15;;;;;;;19.88;11.68;;;;;;;;;;5058449;28;20290;-88
2020/12/01 11:22:42;;;;;;;17.88;10.10;;;;;;;;;;5063862;28;20028;-88
2020/12/01 11:25:07;;;;;;;16.23;9.32;;;;;;;;;;5068144;28;20023;-85
2020/12/01 11:27:33;;;;;;;19.10;10.13;;;;;;;;;;5062445;28;20021;-86
2020/12/01 11:29:58;;;;;;;18.33;10.60;;;;;;;;;;5068342;28;20271;-88
2020/12/01 11:32:23;;;;;;;16.25;9.50;;;;;;;;;;5059708;28;20028;-87
2020/12/01 11:34:49;;;;;;;19.67;12.20;;;;;;;;;;5059795;28;20053;-87
2020/12/01 11:37:14;;;;;;;15.73;8.63;;;;;;;;;;5067773;28;20336;-88
2020/12/01 11:39:39;;;;;;;15.68;7.75;;;;;;;;;;5064719;28;20500;-90
2020/12/01 11:42:04;;;;;;;23.55;11.55;;;;;;;;;;5048728;28;20019;-77
2020/12/01 11:44:30;;;;;;;20.23;11.15;;;;;;;;;;5067541;28;20795;-77
2020/12/01 11:46:56;;;;;;;17.03;10.37;;;;;;;;;;5060004;28;20029;-81
2020/12/01 11:49:22;;;;;;;17.52;8.82;;;;;;;;;;5046579;28;20640;-83
2020/12/01 11:51:48;;;;;;;19.88;10.45;;;;;;;;;;5058747;28;20025;-81
2020/12/01 11:54:13;;;;;;;20.23;10.38;;;;;;;;;;5064789;28;20664;-81
2020/12/01 11:56:38;;;;;;;18.88;9.98;;;;;;;;;;5062331;28;20025;-82
2020/12/01 11:59:04;;;;;;;18.50;8.43;;;;;;;;;;5061573;28;20047;-82
2020/12/01 12:01:29;;;;;;;21.00;10.85;;;;;;;;;;5065125;28;20027;-82
2020/12/01 12:03:54;;;;;;;17.25;10.43;;;;;;;;;;5060040;28;20107;-81
2020/12/01 12:06:20;;;;;;;22.47;11.20;;;;;;;;;;5062176;28;20025;-82
2020/12/01 12:08:45;;;;;;;16.95;8.95;;;;;;;;;;5040304;28;20270;-80
2020/12/01 12:11:13;;;;;;;19.90;12.20;;;;;;;;;;5063338;28;20013;-81
2020/12/01 12:13:38;;;;;;;23.00;10.82;;;;;;;;;;5058045;28;20107;-80
2020/12/01 12:16:04;;;;;;;15.88;8.70;;;;;;;;;;5059496;28;20120;-82
2020/12/01 12:18:29;;;;;;;22.63;9.38;;;;;;;;;;5058894;28;20619;-82
2020/12/01 12:20:54;;;;;;;20.83;9.60;;;;;;;;;;5073309;28;20046;-81
2020/12/01 12:23:20;;;;;;;24.13;11.87;;;;;;;;;;5063095;28;20176;-80
2020/12/01 12:25:45;;;;;;;16.75;8.10;;;;;;;;;;5058521;28;20363;-83
2020/12/01 12:28:10;;;;;;;14.35;8.32;;;;;;;;;;5066303;28;20036;-83
2020/12/01 12:30:36;;;;;;;21.27;10.70;;;;;;;;;;5061112;28;20163;-80
2020/12/01 12:33:01;;;;;;;17.80;10.60;;;;;;;;;;5057767;28;20161;-82
2020/12/01 12:35:26;;;;;;;19.02;9.02;;;;;;;;;;5061638;28;21444;-82
2020/12/01 12:37:51;;;;;;;15.10;9.63;;;;;;;;;;5057589;28;20526;-84
2020/12/01 12:40:17;;;;;;;20.73;11.63;;;;;;;;;;5060410;28;20024;-83
2020/12/01 12:42:42;;;;;;;19.10;12.00;;;;;;;;;;5063342;28;20636;-83
2020/12/01 12:45:08;;;;;;;17.37;8.87;;;;;;;;;;5063317;28;20024;-85
2020/12/01 12:47:33;;;;;;;14.20;7.72;;;;;;;;;;5063818;28;20290;-81
2020/12/01 12:49:59;;;;;;;16.88;9.85;;;;;;;;;;5057254;28;20020;-83
2020/12/01 12:52:24;;;;;;;19.95;9.27;;;;;;;;;;5057637;28;20026;-82
2020/12/01 12:54:49;;;;;;;15.25;9.27;;;;;;;;;;5058499;28;20550;-83
2020/12/01 12:57:15;;;;;;;13.47;8.77;;;;;;;;;;5054389;28;20024;-84
2020/12/01 12:59:40;;;;;;;13.65;8.63;;;;;;;;;;5053397;28;20036;-84
2020/12/01 13:02:08;;;;;;;14.38;8.43;;;;;;;;;;5064417;28;20112;-84
2020/12/01 13:04:33;;;;;;;17.25;10.15;;;;;;;;;;5060507;28;20083;-84
2020/12/01 13:06:59;;;;;;;14.13;9.00;;;;;;;;;;5059973;28;20037;-84
2020/12/01 13:09:24;;;;;;;17.80;11.52;;;;;;;;;;5056682;28;20623;-83
2020/12/01 13:11:50;;;;;;;15.83;10.27;;;;;;;;;;5059231;28;20115;-83
2020/12/01 13:14:24;;;;;;;16.80;10.07;;;;;;;;;;5063365;28;20377;-83
2020/12/01 13:16:53;;;;;;;16.17;8.30;;;;;;;;;;5054634;28;20029;-84
2020/12/01 13:19:22;;;;;;;19.05;10.50;;;;;;;;;;5043857;28;20059;-87
2020/12/01 13:21:47;;;;;;;18.83;11.10;;;;;;;;;;5055547;28;20509;-86
2020/12/01 13:24:15;;;;;;;18.15;10.45;;;;;;;;;;5061573;28;20040;-87
2020/12/01 13:26:44;;;;;;;16.55;8.52;;;;;;;;;;5060085;28;20079;-87
2020/12/01 13:29:20;;;;;;;15.27;9.20;;;;;;;;;;5065248;28;20021;-87
2020/12/01 13:34:32;;;;;;;19.02;9.35;;;;;;;;;;5051066;28;20033;-85
2020/12/01 13:36:57;;;;;;;20.27;11.48;;;;;;;;;;5054576;28;20074;-81
2020/12/01 13:39:23;;;;;;;18.63;10.90;;;;;;;;;;5057488;28;20019;-84
2020/12/01 13:41:52;;;;;;;15.57;9.43;;;;;;;;;;5057702;28;20503;-82
2020/12/01 13:44:18;;;;;;;17.25;9.52;;;;;;;;;;5054639;28;20475;-83
2020/12/01 13:46:43;;;;;;;15.82;10.80;;;;;;;;;;5053927;28;20067;-82
2020/12/01 13:49:11;;;;;;;19.73;10.32;;;;;;;;;;5032790;28;20032;-82
2020/12/01 13:51:41;;;;;;;18.13;11.90;;;;;;;;;;5056277;28;20494;-83
2020/12/01 13:54:10;;;;;;;22.45;12.63;;;;;;;;;;5058806;28;20502;-85
2020/12/01 13:56:44;;;;;;;20.25;10.55;;;;;;;;;;5054106;28;20029;-83
2020/12/01 13:59:13;;;;;;;18.40;12.18;;;;;;;;;;5059394;28;20055;-84
2020/12/01 14:01:39;;;;;;;17.23;10.27;;;;;;;;;;5035305;28;20625;-85
2020/12/01 14:04:04;;;;;;;18.30;11.82;;;;;;;;;;5055542;28;20028;-83
2020/12/01 14:06:29;;;;;;;16.95;10.30;;;;;;;;;;5057479;28;20024;-84
2020/12/01 14:08:55;;;;;;;17.57;10.37;;;;;;;;;;5053479;28;20398;-84
2020/12/01 14:11:20;;;;;;;27.30;12.75;;;;;;;;;;5061426;28;20689;-81
2020/12/01 14:13:46;;;;;;;20.95;12.50;;;;;;;;;;5059574;28;20523;-81
2020/12/01 14:16:11;;;;;;;16.48;10.45;;;;;;;;;;5063605;28;20050;-86
2020/12/01 14:18:36;;;;;;;17.63;10.93;;;;;;;;;;5060315;28;20009;-85
2020/12/01 14:21:03;;;;;;;16.98;11.75;;;;;;;;;;5061547;28;20108;-84
2020/12/01 14:23:31;;;;;;;21.83;11.95;;;;;;;;;;5059124;28;20028;-82
2020/12/01 14:25:57;;;;;;;21.75;12.40;;;;;;;;;;5066721;28;20030;-83
2020/12/01 14:28:22;;;;;;;20.95;11.70;;;;;;;;;;5058530;28;20376;-83
2020/12/01 14:30:51;;;;;;;21.27;12.15;;;;;;;;;;5064115;28;20024;-84
2020/12/01 14:33:16;;;;;;;17.33;11.45;;;;;;;;;;5063672;28;20111;-84
2020/12/01 14:35:44;;;;;;;19.80;10.75;;;;;;;;;;5062848;28;20039;-84
2020/12/01 14:38:12;;;;;;;17.80;12.25;;;;;;;;;;5056709;28;20108;-82
2020/12/01 14:40:38;;;;;;;19.38;12.45;;;;;;;;;;5067030;28;20090;-83
2020/12/01 14:43:04;;;;;;;161.40;109.15;;;;;;;;;;5064143;28;20437;-81
2020/12/01 14:45:30;;;;;;;93.97;64.22;;;;;;;;;;5074833;28;20032;-81
2020/12/01 14:48:20;;;;;;;32.67;20.60;;;;;;;;;;5077174;28;20085;-82
2020/12/01 14:51:04;;;;;;;19.77;12.90;;;;;;;;;;5074129;28;20032;-93
2020/12/01 14:53:32;;;;;;;12.77;8.32;;;;;;;;;;5068312;28;20051;-86
2020/12/01 14:55:57;;;;;;;18.40;11.25;;;;;;;;;;5061021;28;20379;-84
2020/12/01 14:58:23;;;;;;;17.60;10.20;;;;;;;;;;5041101;28;20021;-84
2020/12/01 15:00:54;;;;;;;18.37;11.87;;;;;;;;;;5058702;28;20275;-83
2020/12/01 15:03:30;;;;;;;18.38;11.48;;;;;;;;;;5047675;28;20074;-83
2020/12/01 15:05:55;;;;;;;17.85;11.23;;;;;;;;;;5058260;28;20140;-84
2020/12/01 15:08:32;;;;;;;18.10;12.47;;;;;;;;;;5057542;28;20870;-84
2020/12/01 15:11:16;;;;;;;17.13;11.40;;;;;;;;;;5054493;28;20129;-83
2020/12/01 15:13:42;;;;;;;19.52;11.88;;;;;;;;;;5065814;28;20111;-83